New York, New York
Traffic Map
Current Weather Conditions
New York, New York
Overcast
Overcast
23°
Feels Like: 23°
Wind Chill: 23° Ceiling: 4500
Heat Index: 23° Visibility: 10mi
Dew Point: 16° Wind: 8mph
Humidity: 64% Direction: 250° (WSW)
Pressure: 30.24in Gusts: 0mph
Raw Report DataKNYC 261651Z AUTO 25007KT 10SM OVC045 23/16 A3024 RMK AO2 SLP232 T02280156
Traffic Incident Summary
Active as of:
Severity:
Category:
InformationThere was an issue retrieving the traffic information for this location. Please try a different location or try again shortly.
Advertisements